Time;durP1;ratioP1;P1;durP2;ratioP2;P2;SDS_P1;SDS_P2;PMS_P1;PMS_P2;Temp;Humidity;BMP_temperature;BMP_pressure;BME280_temperature;BME280_humidity;BME280_pressure;Samples;Min_cycle;Max_cycle;Signal;HPM_P1;HPM_P2
2022/07/06 00:00:09;;;;;;;;;;;;;;;20.78;77.14;99181.03;1738676;82;20156;-72
2022/07/06 00:02:37;;;;;;;;;;;;;;;20.75;77.54;99179.83;1718404;82;20081;-72
2022/07/06 00:05:11;;;;;;;;;;;;;;;20.71;77.98;99181.01;1736772;82;20431;-72
2022/07/06 00:07:38;;;;;;;;;;;;;;;20.64;78.37;99179.58;1726213;82;21845;-72
2022/07/06 00:10:06;;;;;;;;;;;;;;;20.59;78.70;99182.75;1715869;82;20420;-72
2022/07/06 00:12:35;;;;;;;;;;;;;;;20.53;79.17;99177.34;1736581;82;20114;-72
2022/07/06 00:15:05;;;;;;;;;;;;;;;20.47;79.47;99175.52;1736712;82;20510;-72
2022/07/06 00:17:48;;;;;;;;;;;;;;;20.40;79.64;99170.70;1736716;82;20116;-72
2022/07/06 00:20:04;;;;;;;;;;;;;;;20.38;79.60;99170.89;1734845;82;21751;-73
2022/07/06 00:22:34;;;;;;;;;;;;;;;20.39;79.94;99168.30;1736602;82;20443;-72
2022/07/06 00:25:18;;;;;;;;;;;;;;;20.36;79.78;99175.42;1733734;82;20479;-72
2022/07/06 00:27:32;;;;;;;;;;;;;;;20.35;79.83;99167.45;1734598;82;20438;-72
2022/07/06 00:30:00;;;;;;;;;;;;;;;20.36;79.91;99166.27;1713497;82;20117;-72
2022/07/06 00:35:02;;;;;;;;;;;;;;;20.40;79.72;99171.30;1680737;82;20089;-72
2022/07/06 00:37:36;;;;;;;;;;;;;;;20.41;79.45;99172.89;1736498;82;20081;-72
2022/07/06 00:40:09;;;;;;;;;;;;;;;20.42;79.29;99167.52;1737070;82;20189;-72
2022/07/06 00:42:44;;;;;;;;;;;;;;;20.44;79.50;99172.11;1712950;82;20082;-72
2022/07/06 00:45:13;;;;;;;;;;;;;;;20.43;79.35;99171.31;1736926;82;21118;-72
2022/07/06 00:47:41;;;;;;;;;;;;;;;20.41;79.21;99168.12;1737078;82;20118;-72
2022/07/06 00:50:22;;;;;;;;;;;;;;;20.37;79.25;99174.23;1736700;82;20098;-72
2022/07/06 00:52:54;;;;;;;;;;;;;;;20.36;79.19;99176.82;1736078;82;20086;-72
2022/07/06 00:55:26;;;;;;;;;;;;;;;20.35;79.03;99173.03;1736955;82;20142;-73
2022/07/06 00:57:52;;;;;;;;;;;;;;;20.35;78.99;99168.84;1736865;82;21134;-73
2022/07/06 01:00:26;;;;;;;;;;;;;;;20.34;79.03;99170.84;1713536;82;20082;-73
2022/07/06 01:02:50;;;;;;;;;;;;;;;20.35;79.06;99167.45;1715913;82;20097;-72
2022/07/06 01:05:20;;;;;;;;;;;;;;;20.35;78.81;99160.48;1748962;82;20109;-73
2022/07/06 01:07:48;;;;;;;;;;;;;;;20.36;78.86;99161.48;1748864;82;20097;-73
2022/07/06 01:10:17;;;;;;;;;;;;;;;20.34;78.98;99158.89;1749093;82;21114;-72
2022/07/06 01:12:52;;;;;;;;;;;;;;;20.30;79.04;99160.27;1748772;82;20093;-73
2022/07/06 01:15:25;;;;;;;;;;;;;;;20.26;79.31;99158.05;1748613;82;20092;-73
2022/07/06 01:17:53;;;;;;;;;;;;;;;20.24;79.60;99155.45;1706190;83;20178;-73
2022/07/06 01:20:24;;;;;;;;;;;;;;;20.19;79.70;99152.47;1693771;84;20098;-73
2022/07/06 01:25:38;;;;;;;;;;;;;;;20.08;80.04;99157.17;1693728;84;20451;-73
2022/07/06 01:34:06;;;;;;;;;;;;;;;19.99;80.47;99158.11;1680405;84;20106;-73
2022/07/06 01:40:18;;;;;;;;;;;;;;;19.89;81.29;99151.87;1693791;84;20097;-72
2022/07/06 01:42:49;;;;;;;;;;;;;;;19.81;81.48;99146.84;1680434;84;20085;-72
2022/07/06 01:45:39;;;;;;;;;;;;;;;19.77;81.64;99148.20;1693682;84;20090;-72
2022/07/06 01:48:29;;;;;;;;;;;;;;;19.75;81.82;99151.97;1679101;84;37977;-72
2022/07/06 01:50:57;;;;;;;;;;;;;;;19.71;82.03;99149.75;1693627;84;22224;-72
2022/07/06 01:53:28;;;;;;;;;;;;;;;19.70;82.22;99148.15;1693652;84;20101;-73
2022/07/06 01:56:01;;;;;;;;;;;;;;;19.71;82.36;99148.36;1680835;85;20094;-73
2022/07/06 01:59:07;;;;;;;;;;;;;;;19.70;82.50;99153.72;1693809;85;20429;-73
2022/07/06 02:01:40;;;;;;;;;;;;;;;19.68;82.59;99147.73;1693588;84;20085;-73
2022/07/06 02:04:24;;;;;;;;;;;;;;;19.65;82.75;99151.30;1717827;83;20124;-73
2022/07/06 02:10:03;;;;;;;;;;;;;;;19.58;83.43;99147.09;1710707;83;20139;-73
2022/07/06 02:12:45;;;;;;;;;;;;;;;19.53;83.61;99141.88;1704614;82;20122;-73
2022/07/06 02:15:18;;;;;;;;;;;;;;;19.48;83.75;99147.77;1735772;82;20090;-73
2022/07/06 02:17:44;;;;;;;;;;;;;;;19.42;84.02;99148.72;1735873;82;21754;-73
2022/07/06 02:20:14;;;;;;;;;;;;;;;19.40;84.30;99148.30;1735610;82;20153;-73
2022/07/06 02:25:36;;;;;;;;;;;;;;;19.39;84.52;99146.70;1735760;82;20127;-73
2022/07/06 02:31:34;;;;;;;;;;;;;;;19.45;84.73;99154.11;1729503;82;21540;-73
2022/07/06 02:34:05;;;;;;;;;;;;;;;19.48;84.92;99151.94;1735033;82;20429;-73
2022/07/06 02:36:31;;;;;;;;;;;;;;;19.48;84.99;99149.16;1735207;82;20122;-73
2022/07/06 02:42:09;;;;;;;;;;;;;;;19.44;85.82;99145.55;1735607;81;20094;-73
2022/07/06 02:47:21;;;;;;;;;;;;;;;19.36;86.00;99150.25;1735260;82;20166;-73
2022/07/06 02:49:48;;;;;;;;;;;;;;;19.37;86.18;99137.13;1735450;82;20094;-72
2022/07/06 02:52:18;;;;;;;;;;;;;;;19.38;86.38;99135.95;1704879;81;20119;-73
2022/07/06 02:54:53;;;;;;;;;;;;;;;19.40;86.57;99135.77;1709997;81;20082;-73
2022/07/06 02:57:26;;;;;;;;;;;;;;;19.44;86.27;99135.80;1734120;82;21239;-73
2022/07/06 02:59:57;;;;;;;;;;;;;;;19.50;86.15;99139.03;1734569;82;20153;-73
2022/07/06 03:02:24;;;;;;;;;;;;;;;19.55;85.91;99136.72;1729143;81;20103;-73
2022/07/06 03:04:54;;;;;;;;;;;;;;;19.61;85.70;99134.38;1713637;82;20482;-73
2022/07/06 03:07:25;;;;;;;;;;;;;;;19.66;85.51;99130.62;1739614;81;20100;-74
2022/07/06 03:09:53;;;;;;;;;;;;;;;19.73;85.47;99133.45;1719006;82;20132;-74
2022/07/06 03:12:22;;;;;;;;;;;;;;;19.79;84.82;99131.91;1737880;82;20105;-74
2022/07/06 03:14:52;;;;;;;;;;;;;;;19.89;84.52;99133.77;1737964;82;20436;-74
2022/07/06 03:17:23;;;;;;;;;;;;;;;19.97;84.07;99145.16;1735926;82;20113;-74
2022/07/06 03:19:54;;;;;;;;;;;;;;;20.06;83.74;99145.62;1705870;83;20438;-74
2022/07/06 03:22:20;;;;;;;;;;;;;;;20.13;83.19;99138.70;1686268;84;20555;-75
2022/07/06 03:24:50;;;;;;;;;;;;;;;20.21;82.66;99143.12;1727880;82;20093;-75
2022/07/06 03:27:20;;;;;;;;;;;;;;;20.28;82.27;99145.91;1717176;82;20108;-75
2022/07/06 03:30:03;;;;;;;;;;;;;;;20.37;81.88;99140.79;1690528;84;20095;-74
2022/07/06 03:32:25;;;;;;;;;;;;;;;20.43;81.39;99149.02;1706101;84;20128;-75
2022/07/06 03:34:59;;;;;;;;;;;;;;;20.49;80.84;99147.25;1709399;84;21715;-73
2022/07/06 03:37:30;;;;;;;;;;;;;;;20.56;81.14;99148.67;1705527;83;20442;-73
2022/07/06 03:40:03;;;;;;;;;;;;;;;20.66;80.36;99155.69;1690689;84;20159;-73
2022/07/06 03:42:30;;;;;;;;;;;;;;;20.78;79.73;99167.09;1708986;84;20417;-73
2022/07/06 03:44:59;;;;;;;;;;;;;;;20.93;79.40;99162.33;1709397;84;20143;-73
2022/07/06 03:47:29;;;;;;;;;;;;;;;21.04;79.06;99160.36;1708694;84;21513;-72
2022/07/06 03:49:56;;;;;;;;;;;;;;;21.14;78.65;99156.00;1709218;84;20084;-71
2022/07/06 03:52:31;;;;;;;;;;;;;;;21.23;77.57;99153.06;1712901;82;20119;-72
2022/07/06 03:54:55;;;;;;;;;;;;;;;21.34;77.75;99144.70;1709082;84;20119;-72
2022/07/06 03:57:25;;;;;;;;;;;;;;;21.40;77.80;99153.66;1709425;84;20111;-72
2022/07/06 03:59:52;;;;;;;;;;;;;;;21.45;77.09;99163.63;1709397;84;21171;-72
2022/07/06 04:02:21;;;;;;;;;;;;;;;21.52;76.91;99156.66;1709268;84;20422;-72
2022/07/06 04:04:54;;;;;;;;;;;;;;;21.63;76.89;99145.48;1687722;83;20107;-72
2022/07/06 04:07:34;;;;;;;;;;;;;;;21.74;76.29;99147.67;1724271;82;20460;-73
2022/07/06 04:09:59;;;;;;;;;;;;;;;21.81;76.30;99137.89;1730344;81;20143;-72
2022/07/06 04:12:35;;;;;;;;;;;;;;;21.91;76.41;99136.28;1701475;83;20123;-73
2022/07/06 04:15:02;;;;;;;;;;;;;;;22.01;75.41;99135.44;1715887;82;20549;-74
2022/07/06 04:20:18;;;;;;;;;;;;;;;22.17;75.98;99130.25;1717732;82;20393;-73
2022/07/06 04:22:52;;;;;;;;;;;;;;;22.30;75.48;99130.61;1731212;82;20123;-72
2022/07/06 04:25:22;;;;;;;;;;;;;;;22.43;74.42;99137.96;1727508;82;20675;-71
2022/07/06 04:27:48;;;;;;;;;;;;;;;22.58;73.38;99181.43;1747503;82;20125;-73
2022/07/06 04:30:21;;;;;;;;;;;;;;;22.76;74.05;99187.76;1747416;82;20093;-72
2022/07/06 04:32:48;;;;;;;;;;;;;;;22.99;71.57;99175.48;1692260;82;20122;-71
2022/07/06 04:35:20;;;;;;;;;;;;;;;23.18;71.01;99164.36;1748138;81;20113;-71
2022/07/06 04:37:47;;;;;;;;;;;;;;;23.33;69.02;99159.45;1747317;81;21146;-74
2022/07/06 04:40:15;;;;;;;;;;;;;;;23.45;68.20;99159.58;1747651;82;20435;-76
2022/07/06 04:42:49;;;;;;;;;;;;;;;23.49;67.74;99161.75;1736856;82;20126;-78
2022/07/06 04:45:18;;;;;;;;;;;;;;;23.50;67.61;99166.94;1740569;82;20688;-74
2022/07/06 04:47:48;;;;;;;;;;;;;;;23.48;67.05;99161.55;1747642;81;20460;-72
2022/07/06 04:50:16;;;;;;;;;;;;;;;23.43;67.20;99158.59;1747413;82;22131;-73
2022/07/06 04:52:48;;;;;;;;;;;;;;;23.40;67.62;99151.01;1746306;82;20109;-75
2022/07/06 04:55:14;;;;;;;;;;;;;;;23.37;67.45;99141.42;1747698;82;20093;-73
2022/07/06 04:57:52;;;;;;;;;;;;;;;23.39;67.53;99138.21;1747497;81;20120;-74
2022/07/06 05:00:17;;;;;;;;;;;;;;;23.37;68.05;99135.82;1747356;82;20418;-74
2022/07/06 05:02:47;;;;;;;;;;;;;;;23.38;68.67;99133.21;1737320;82;21184;-73
2022/07/06 05:05:14;;;;;;;;;;;;;;;23.47;69.18;99136.95;1730613;81;20430;-74
2022/07/06 05:07:42;;;;;;;;;;;;;;;23.60;67.65;99135.88;1743493;81;20099;-74
2022/07/06 05:10:11;;;;;;;;;;;;;;;23.71;67.81;99135.95;1689879;83;20195;-74
2022/07/06 05:12:43;;;;;;;;;;;;;;;23.83;68.22;99134.64;1708560;84;20155;-74
2022/07/06 05:15:11;;;;;;;;;;;;;;;23.89;66.82;99130.18;1708700;84;20114;-76
2022/07/06 05:17:42;;;;;;;;;;;;;;;23.96;66.90;99130.72;1688627;84;20084;-74
2022/07/06 05:20:09;;;;;;;;;;;;;;;24.04;66.77;99126.63;1729697;82;20421;-74
2022/07/06 05:22:49;;;;;;;;;;;;;;;24.17;66.22;99120.69;1687756;83;20461;-74
2022/07/06 05:25:14;;;;;;;;;;;;;;;24.26;65.82;99117.42;1719343;83;20111;-73
2022/07/06 05:27:48;;;;;;;;;;;;;;;24.36;66.47;99115.86;1714519;82;20865;-73
2022/07/06 05:30:16;;;;;;;;;;;;;;;24.48;65.63;99117.94;1720942;81;20115;-74
2022/07/06 05:32:50;;;;;;;;;;;;;;;24.57;65.15;99113.41;1708691;82;20143;-73
2022/07/06 05:35:17;;;;;;;;;;;;;;;24.64;64.54;99111.11;1708403;84;20111;-73
2022/07/06 05:37:47;;;;;;;;;;;;;;;24.71;65.01;99108.22;1722489;82;20179;-74
2022/07/06 05:40:16;;;;;;;;;;;;;;;24.82;64.42;99101.85;1724214;82;21184;-74
2022/07/06 05:42:46;;;;;;;;;;;;;;;24.96;64.12;99102.26;1738134;82;20098;-73
2022/07/06 05:45:16;;;;;;;;;;;;;;;25.09;63.84;99096.25;1738028;82;20435;-73
2022/07/06 05:50:33;;;;;;;;;;;;;;;25.38;61.93;99096.60;1738455;82;20475;-74
2022/07/06 05:53:01;;;;;;;;;;;;;;;25.49;61.44;99085.16;1733351;82;21065;-73
2022/07/06 05:55:33;;;;;;;;;;;;;;;25.58;62.36;99089.01;1725241;82;20090;-74
2022/07/06 05:58:04;;;;;;;;;;;;;;;25.70;62.26;99086.84;1719701;82;20440;-73
2022/07/06 06:00:38;;;;;;;;;;;;;;;25.79;61.04;99082.25;1738368;82;20669;-73
2022/07/06 06:03:08;;;;;;;;;;;;;;;25.90;59.28;99080.03;1738349;82;20440;-73
2022/07/06 06:05:39;;;;;;;;;;;;;;;26.02;59.12;99075.77;1718207;82;20117;-74
2022/07/06 06:08:07;;;;;;;;;;;;;;;26.14;58.92;99064.48;1737073;82;20069;-73
2022/07/06 06:10:34;;;;;;;;;;;;;;;26.27;59.47;99066.84;1738190;82;20077;-74
2022/07/06 06:13:06;;;;;;;;;;;;;;;26.39;58.92;99065.42;1738392;82;20101;-73
2022/07/06 06:15:38;;;;;;;;;;;;;;;26.49;57.92;99057.37;1731641;82;20113;-74
2022/07/06 06:18:06;;;;;;;;;;;;;;;26.57;57.35;99064.43;1732871;82;21090;-73
2022/07/06 06:20:32;;;;;;;;;;;;;;;26.64;57.39;99059.41;1738257;82;20484;-72
2022/07/06 06:23:04;;;;;;;;;;;;;;;26.71;58.09;99060.48;1718518;82;20108;-74
2022/07/06 06:25:42;;;;;;;;;;;;;;;26.77;58.56;99058.13;1718304;82;20097;-73
2022/07/06 06:28:16;;;;;;;;;;;;;;;26.85;58.33;99060.95;1738410;82;20109;-74
2022/07/06 06:30:41;;;;;;;;;;;;;;;26.95;58.73;99053.49;1703705;82;20107;-74
2022/07/06 06:33:18;;;;;;;;;;;;;;;27.01;58.85;99052.38;1726701;82;20115;-73
2022/07/06 06:35:49;;;;;;;;;;;;;;;27.07;58.01;99052.04;1714770;82;20483;-73
2022/07/06 06:38:16;;;;;;;;;;;;;;;27.13;57.77;99050.28;1710229;82;20092;-74
2022/07/06 06:40:44;;;;;;;;;;;;;;;27.14;55.31;99045.62;1677353;85;20501;-74
2022/07/06 06:43:12;;;;;;;;;;;;;;;27.11;55.21;99040.07;1677297;85;22170;-74
2022/07/06 06:45:46;;;;;;;;;;;;;;;27.04;55.37;99033.20;1675814;85;20147;-74
2022/07/06 06:48:20;;;;;;;;;;;;;;;27.04;57.69;99032.58;1676990;84;20155;-74
2022/07/06 06:50:51;;;;;;;;;;;;;;;27.14;57.14;99036.38;1676770;85;20478;-74
2022/07/06 06:53:18;;;;;;;;;;;;;;;27.22;57.69;99037.14;1676776;85;20143;-73
2022/07/06 06:55:49;;;;;;;;;;;;;;;27.34;56.67;99035.64;1677158;85;21735;-73
2022/07/06 06:58:27;;;;;;;;;;;;;;;27.45;57.12;99030.52;1676661;85;20222;-73
2022/07/06 07:00:53;;;;;;;;;;;;;;;27.56;57.34;99033.86;1708703;84;20085;-73
2022/07/06 07:03:22;;;;;;;;;;;;;;;27.68;53.94;99028.14;1708669;84;20430;-73
2022/07/06 07:05:53;;;;;;;;;;;;;;;27.75;52.41;99026.51;1648279;85;20119;-75
2022/07/06 07:08:24;;;;;;;;;;;;;;;27.85;52.14;99024.63;1651502;85;21102;-74
2022/07/06 07:10:53;;;;;;;;;;;;;;;27.99;53.00;99026.27;1715496;82;20145;-73
2022/07/06 07:13:23;;;;;;;;;;;;;;;28.17;53.17;99020.30;1736493;82;20112;-76
2022/07/06 07:15:58;;;;;;;;;;;;;;;28.37;53.20;99021.53;1738229;82;20109;-73
2022/07/06 07:18:24;;;;;;;;;;;;;;;28.56;50.91;99008.45;1738034;82;20427;-77
2022/07/06 07:20:57;;;;;;;;;;;;;;;28.67;49.54;99009.54;1738465;81;21598;-75
2022/07/06 07:23:25;;;;;;;;;;;;;;;28.75;49.65;99015.93;1747184;80;20475;-73
2022/07/06 07:25:52;;;;;;;;;;;;;;;28.87;47.97;99007.31;1776325;80;20420;-76
2022/07/06 07:28:22;;;;;;;;;;;;;;;28.99;47.33;99007.91;1730967;82;20135;-76
2022/07/06 07:30:48;;;;;;;;;;;;;;;29.14;47.72;99008.23;1709492;82;20135;-76
2022/07/06 07:33:17;;;;;;;;;;;;;;;29.32;46.52;99007.63;1710793;82;21814;-76
2022/07/06 07:35:44;;;;;;;;;;;;;;;29.49;46.17;99011.27;1650264;85;20157;-77
2022/07/06 07:38:16;;;;;;;;;;;;;;;29.67;45.25;99004.98;1647413;86;20482;-78
2022/07/06 07:40:43;;;;;;;;;;;;;;;29.82;44.65;99008.10;1648172;86;20473;-76
2022/07/06 07:43:18;;;;;;;;;;;;;;;29.96;43.82;99003.97;1648712;86;20478;-75
2022/07/06 07:45:49;;;;;;;;;;;;;;;30.07;44.16;99002.33;1652444;86;20124;-75
2022/07/06 07:48:21;;;;;;;;;;;;;;;30.22;43.87;99000.54;1684617;84;20186;-84
2022/07/06 07:50:49;;;;;;;;;;;;;;;30.39;43.02;99003.16;1667385;84;20422;-74
2022/07/06 07:53:18;;;;;;;;;;;;;;;30.56;42.90;98993.19;1675269;84;20819;-76
2022/07/06 07:55:48;;;;;;;;;;;;;;;30.72;41.52;98995.78;1676854;84;20104;-75
2022/07/06 07:58:15;;;;;;;;;;;;;;;30.85;41.83;98996.46;1657030;84;20154;-75
2022/07/06 08:00:42;;;;;;;;;;;;;;;30.92;41.07;98993.18;1730073;81;20124;-74
2022/07/06 08:03:08;;;;;;;;;;;;;;;30.96;41.86;98999.48;1677235;85;20479;-75
2022/07/06 08:05:38;;;;;;;;;;;;;;;31.06;40.81;99006.14;1657905;85;20187;-74
2022/07/06 08:08:15;;;;;;;;;;;;;;;31.17;40.25;99000.84;1685798;85;20471;-74
2022/07/06 08:10:46;;;;;;;;;;;;;;;31.19;39.79;99007.47;1677951;85;21127;-74
2022/07/06 08:13:23;;;;;;;;;;;;;;;31.23;39.71;99003.83;1677587;85;20644;-75
2022/07/06 08:15:58;;;;;;;;;;;;;;;31.34;40.39;99012.67;1676785;85;20136;-74
2022/07/06 08:18:28;;;;;;;;;;;;;;;31.48;39.84;99009.23;1649309;86;20151;-75
2022/07/06 08:21:08;;;;;;;;;;;;;;;31.61;39.95;99011.13;1649666;87;20154;-83
2022/07/06 08:23:39;;;;;;;;;;;;;;;31.77;39.31;99009.44;1668273;85;21183;-75
2022/07/06 08:26:06;;;;;;;;;;;;;;;31.93;38.48;99012.56;1680045;84;20155;-74
2022/07/06 08:28:32;;;;;;;;;;;;;;;32.20;37.77;99006.86;1728075;82;20105;-75
2022/07/06 08:31:04;;;;;;;;;;;;;;;32.42;37.77;99003.19;1688160;83;20099;-76
2022/07/06 08:33:34;;;;;;;;;;;;;;;32.68;37.32;98993.64;1686409;83;20119;-75
2022/07/06 08:36:01;;;;;;;;;;;;;;;32.86;35.18;98989.17;1726051;82;21125;-75
2022/07/06 08:38:31;;;;;;;;;;;;;;;32.89;36.09;98986.16;1719215;82;20395;-75
2022/07/06 08:40:59;;;;;;;;;;;;;;;33.02;35.55;98989.53;1709432;84;20115;-74
2022/07/06 08:43:32;;;;;;;;;;;;;;;33.13;34.58;98983.31;1681269;84;20443;-75
2022/07/06 08:46:05;;;;;;;;;;;;;;;33.26;34.26;98980.23;1709527;84;20439;-74
2022/07/06 08:48:35;;;;;;;;;;;;;;;33.39;34.88;98975.13;1677791;85;21106;-76
2022/07/06 08:51:13;;;;;;;;;;;;;;;33.61;33.05;98971.30;1656205;85;20131;-75
2022/07/06 08:53:39;;;;;;;;;;;;;;;33.72;34.17;98974.36;1677155;85;20151;-76
2022/07/06 08:56:17;;;;;;;;;;;;;;;33.81;32.58;98978.44;1676486;85;20151;-75
2022/07/06 08:58:47;;;;;;;;;;;;;;;33.82;32.55;98970.83;1677621;84;20123;-76
2022/07/06 09:01:20;;;;;;;;;;;;;;;33.85;32.12;98974.13;1677452;85;21598;-75
2022/07/06 09:03:50;;;;;;;;;;;;;;;33.79;32.59;98971.17;1647947;85;20131;-76
2022/07/06 09:06:21;;;;;;;;;;;;;;;33.83;32.18;98955.33;1655029;85;20505;-77
2022/07/06 09:08:51;;;;;;;;;;;;;;;33.89;32.46;98959.70;1675857;84;20593;-75
2022/07/06 09:11:24;;;;;;;;;;;;;;;33.99;32.33;98963.40;1748596;82;20165;-77
2022/07/06 09:13:55;;;;;;;;;;;;;;;34.12;31.54;98965.30;1717399;82;20109;-75
2022/07/06 09:16:29;;;;;;;;;;;;;;;34.19;31.53;98951.94;1748407;82;20504;-77
2022/07/06 09:19:00;;;;;;;;;;;;;;;34.33;31.97;98951.97;1717159;82;20100;-71
2022/07/06 09:21:32;;;;;;;;;;;;;;;34.58;29.29;98951.20;1717538;82;20440;-72
2022/07/06 09:24:08;;;;;;;;;;;;;;;34.66;28.12;98955.98;1748734;82;20495;-72
2022/07/06 09:26:39;;;;;;;;;;;;;;;34.69;28.95;98955.63;1747933;82;21979;-72
2022/07/06 09:29:11;;;;;;;;;;;;;;;34.74;28.56;98937.83;1716742;82;20113;-72
2022/07/06 09:31:40;;;;;;;;;;;;;;;34.82;27.94;98934.73;1690719;82;20075;-72
2022/07/06 09:34:12;;;;;;;;;;;;;;;34.86;27.02;98933.89;1719139;83;20357;-73
2022/07/06 09:36:45;;;;;;;;;;;;;;;34.83;28.09;98933.46;1711901;83;20091;-72
2022/07/06 09:39:19;;;;;;;;;;;;;;;34.84;27.86;98937.88;1718479;83;21097;-73
2022/07/06 09:41:47;;;;;;;;;;;;;;;34.86;27.70;98928.83;1718741;83;20115;-71
2022/07/06 09:44:36;;;;;;;;;;;;;;;34.94;28.05;98928.56;1719275;83;20094;-74
2022/07/06 09:47:04;;;;;;;;;;;;;;;35.00;28.08;98928.78;1722588;82;20152;-75
2022/07/06 09:49:34;;;;;;;;;;;;;;;35.07;28.09;98922.66;1667918;85;20171;-74
2022/07/06 09:52:02;;;;;;;;;;;;;;;35.24;28.41;98921.42;1665035;85;20742;-71
2022/07/06 09:54:42;;;;;;;;;;;;;;;35.35;27.63;98928.73;1688320;83;20082;-72
2022/07/06 09:57:12;;;;;;;;;;;;;;;35.54;27.87;98922.08;1688846;83;20433;-74
2022/07/06 09:59:42;;;;;;;;;;;;;;;35.77;26.89;98914.55;1718734;83;20463;-74
2022/07/06 10:02:14;;;;;;;;;;;;;;;35.85;28.34;98912.03;1717459;83;20083;-72
2022/07/06 10:04:50;;;;;;;;;;;;;;;35.98;29.16;98918.92;1718661;83;20071;-73
2022/07/06 10:07:16;;;;;;;;;;;;;;;36.10;27.48;98913.31;1718351;83;20154;-72
2022/07/06 10:09:48;;;;;;;;;;;;;;;36.01;27.39;98903.63;1719387;83;20430;-73
2022/07/06 10:12:24;;;;;;;;;;;;;;;36.02;26.95;98905.20;1688268;83;20147;-73
2022/07/06 10:14:56;;;;;;;;;;;;;;;35.88;27.40;98897.53;1693314;82;20099;-73
2022/07/06 10:17:26;;;;;;;;;;;;;;;35.78;27.52;98898.20;1704108;82;20089;-73
2022/07/06 10:19:55;;;;;;;;;;;;;;;35.73;27.16;98899.71;1729345;82;20119;-72
2022/07/06 10:22:27;;;;;;;;;;;;;;;35.80;26.62;98892.16;1748761;82;20100;-72
2022/07/06 10:24:59;;;;;;;;;;;;;;;35.87;27.12;98888.04;1748886;82;20495;-72
2022/07/06 10:27:27;;;;;;;;;;;;;;;35.93;27.61;98883.95;1748588;82;20085;-72
2022/07/06 10:30:00;;;;;;;;;;;;;;;36.12;27.96;98880.74;1742378;82;21204;-72
2022/07/06 10:32:28;;;;;;;;;;;;;;;36.27;27.14;98888.56;1711837;82;20112;-73
2022/07/06 10:35:01;;;;;;;;;;;;;;;36.21;26.63;98887.70;1739589;82;20126;-73
2022/07/06 10:37:27;;;;;;;;;;;;;;;36.24;26.45;98886.05;1730070;82;20119;-72
2022/07/06 10:42:54;;;;;;;;;;;;;;;36.27;26.35;98875.06;1688625;83;20114;-73
2022/07/06 10:45:31;;;;;;;;;;;;;;;36.22;26.53;98865.77;1697083;82;20120;-72
2022/07/06 10:48:25;;;;;;;;;;;;;;;36.11;26.37;98867.10;1722769;82;20118;-73
2022/07/06 10:50:52;;;;;;;;;;;;;;;36.01;26.37;98857.93;1718127;83;20624;-72
2022/07/06 10:53:32;;;;;;;;;;;;;;;36.06;26.76;98845.77;1718703;83;20083;-73
2022/07/06 10:56:00;;;;;;;;;;;;;;;36.19;27.28;98846.00;1718434;83;22025;-72
2022/07/06 10:58:42;;;;;;;;;;;;;;;36.20;26.01;98850.42;1718565;83;20123;-73
2022/07/06 11:01:15;;;;;;;;;;;;;;;36.08;26.90;98842.41;1688000;83;20127;-72
2022/07/06 11:03:55;;;;;;;;;;;;;;;35.76;27.24;98835.11;1718572;83;20122;-73
2022/07/06 11:06:22;;;;;;;;;;;;;;;35.58;27.93;98824.81;1674058;85;20158;-72
2022/07/06 11:08:58;;;;;;;;;;;;;;;35.67;28.42;98827.50;1677168;84;21059;-73
2022/07/06 11:11:38;;;;;;;;;;;;;;;35.89;27.69;98829.13;1655513;85;20127;-72
2022/07/06 11:14:11;;;;;;;;;;;;;;;36.10;26.90;98829.83;1676484;85;20127;-73
2022/07/06 11:16:54;;;;;;;;;;;;;;;36.01;26.51;98833.66;1655989;85;20132;-72
2022/07/06 11:19:25;;;;;;;;;;;;;;;35.47;27.25;98839.75;1666921;85;20108;-72
2022/07/06 11:21:59;;;;;;;;;;;;;;;34.97;27.89;98824.91;1667335;86;21179;-73
2022/07/06 11:24:35;;;;;;;;;;;;;;;34.53;28.39;98827.30;1648147;87;20181;-78
2022/07/06 11:27:00;;;;;;;;;;;;;;;34.25;29.02;98826.85;1680736;84;20216;-72
2022/07/06 11:29:34;;;;;;;;;;;;;;;34.10;28.95;98826.09;1655421;85;20115;-73
2022/07/06 11:32:04;;;;;;;;;;;;;;;33.95;29.66;98832.47;1645043;87;20446;-71
2022/07/06 11:34:34;;;;;;;;;;;;;;;33.76;29.53;98829.02;1645354;87;20099;-70
2022/07/06 11:37:09;;;;;;;;;;;;;;;33.55;29.81;98831.61;1622478;87;20127;-72
2022/07/06 11:39:41;;;;;;;;;;;;;;;33.37;30.55;98832.59;1678279;83;20157;-71
2022/07/06 11:42:14;;;;;;;;;;;;;;;33.42;31.43;98831.91;1705627;84;20125;-71
2022/07/06 11:44:41;;;;;;;;;;;;;;;33.49;30.88;98825.05;1704743;84;20137;-70
2022/07/06 11:47:12;;;;;;;;;;;;;;;33.48;30.60;98822.84;1704750;84;21580;-71
2022/07/06 11:49:45;;;;;;;;;;;;;;;33.39;30.80;98823.72;1705437;84;20148;-71
2022/07/06 11:52:13;;;;;;;;;;;;;;;33.30;31.66;98820.17;1684389;83;20145;-71
2022/07/06 11:54:43;;;;;;;;;;;;;;;33.34;32.38;98824.40;1683365;84;20456;-71
2022/07/06 11:57:16;;;;;;;;;;;;;;;33.44;32.73;98827.95;1705517;84;20495;-71
2022/07/06 11:59:46;;;;;;;;;;;;;;;33.58;31.78;98827.14;1683836;84;21110;-71
2022/07/06 12:02:22;;;;;;;;;;;;;;;33.62;31.59;98828.38;1705633;84;20173;-71
2022/07/06 12:04:50;;;;;;;;;;;;;;;33.53;31.11;98824.98;1705193;84;20105;-71
2022/07/06 12:07:17;;;;;;;;;;;;;;;33.44;31.52;98821.62;1706688;83;20367;-73
2022/07/06 12:09:52;;;;;;;;;;;;;;;33.36;31.70;98816.16;1681441;84;20116;-71
2022/07/06 12:12:21;;;;;;;;;;;;;;;33.34;31.92;98813.66;1703856;84;21061;-74
2022/07/06 12:14:46;;;;;;;;;;;;;;;33.40;33.44;98818.18;1703846;84;20129;-72
2022/07/06 12:17:15;;;;;;;;;;;;;;;33.54;33.07;98807.27;1703998;84;20133;-72
2022/07/06 12:19:46;;;;;;;;;;;;;;;33.64;32.21;98814.44;1687203;82;20172;-72
2022/07/06 12:22:26;;;;;;;;;;;;;;;33.81;31.93;98804.16;1681706;84;20129;-71
2022/07/06 12:24:52;;;;;;;;;;;;;;;34.02;34.56;98809.30;1704366;82;21135;-77
2022/07/06 12:27:21;;;;;;;;;;;;;;;34.23;33.41;98801.56;1704477;84;20153;-85
2022/07/06 12:29:59;;;;;;;;;;;;;;;34.44;30.83;98801.78;1698827;84;20172;-71
2022/07/06 12:32:27;;;;;;;;;;;;;;;34.38;31.38;98797.43;1646630;87;20175;-71
2022/07/06 12:35:04;;;;;;;;;;;;;;;34.21;30.86;98785.61;1684111;85;20147;-72
2022/07/06 12:37:35;;;;;;;;;;;;;;;33.99;31.54;98790.35;1679564;85;21120;-73
2022/07/06 12:40:01;;;;;;;;;;;;;;;33.77;31.59;98789.31;1692675;84;20128;-71
2022/07/06 12:42:32;;;;;;;;;;;;;;;33.52;32.20;98799.23;1683636;84;20155;-71
2022/07/06 12:45:04;;;;;;;;;;;;;;;33.33;31.84;98786.48;1649723;86;20123;-73
2022/07/06 12:47:28;;;;;;;;;;;;;;;33.07;32.18;98798.38;1671066;85;20075;-71
2022/07/06 12:50:09;;;;;;;;;;;;;;;32.82;32.58;98794.66;1687350;84;21199;-71
2022/07/06 12:52:38;;;;;;;;;;;;;;;32.60;33.67;98801.25;1671100;86;20088;-71
2022/07/06 12:55:12;;;;;;;;;;;;;;;32.39;34.39;98808.80;1717366;83;20083;-71
2022/07/06 12:57:51;;;;;;;;;;;;;;;32.18;33.74;98799.28;1717595;83;20136;-71
2022/07/06 13:00:16;;;;;;;;;;;;;;;32.06;34.99;98794.59;1716815;83;20124;-71
2022/07/06 13:02:47;;;;;;;;;;;;;;;32.09;35.45;98783.07;1717668;83;21872;-71
2022/07/06 13:05:15;;;;;;;;;;;;;;;32.20;36.74;98781.13;1716571;83;20095;-71
2022/07/06 13:07:46;;;;;;;;;;;;;;;32.39;36.79;98778.97;1709921;83;20486;-71
2022/07/06 13:10:16;;;;;;;;;;;;;;;32.86;36.93;98768.27;1677084;85;20135;-71
2022/07/06 13:12:47;;;;;;;;;;;;;;;33.53;35.93;98765.87;1628988;87;20161;-72
2022/07/06 13:15:15;;;;;;;;;;;;;;;34.22;34.47;98758.70;1660920;86;21128;-71
2022/07/06 13:17:45;;;;;;;;;;;;;;;34.84;34.31;98744.66;1719245;83;20075;-71
2022/07/06 13:20:25;;;;;;;;;;;;;;;35.37;32.15;98732.12;1679735;83;20103;-72
2022/07/06 13:22:52;;;;;;;;;;;;;;;35.88;32.12;98726.20;1700036;83;20082;-73
2022/07/06 13:25:22;;;;;;;;;;;;;;;36.17;28.30;98720.80;1729957;83;20094;-72
2022/07/06 13:27:54;;;;;;;;;;;;;;;36.32;30.01;98721.44;1700347;83;20091;-71
2022/07/06 13:30:24;;;;;;;;;;;;;;;36.48;28.21;98720.58;1730511;81;20110;-72
2022/07/06 13:32:52;;;;;;;;;;;;;;;36.26;27.96;98716.34;1707515;82;20125;-71
2022/07/06 13:35:20;;;;;;;;;;;;;;;36.01;28.20;98720.84;1727541;82;20549;-71
2022/07/06 13:37:49;;;;;;;;;;;;;;;35.79;28.30;98718.50;1718565;83;20095;-71
2022/07/06 13:40:25;;;;;;;;;;;;;;;35.73;28.55;98718.42;1710678;83;21103;-71
2022/07/06 13:42:54;;;;;;;;;;;;;;;35.91;29.82;98709.47;1655978;85;20124;-71
2022/07/06 13:45:28;;;;;;;;;;;;;;;36.16;28.64;98713.53;1677594;85;20147;-71